Startpagina
METAR-TAF:

METAR-TAF

Vliegvelden :

Vliegbasis Gilze-Rijen

Gilze-Rijen, Nederland

breedte: 51-34N, lengte: 004-56E, hoogte: 15 m

Actueel weer

Dit bericht is 25 minuten geleden gemaakt, om 23:25 UTC
Wind 3 kt uit het zuidoosten
Temperatuur 5°C
Vochtigheid 100%
Druk 1025 hPa
Zicht: 7000 m
Geheel bewolkt op 34000 ft
nevel

METAR: EHGR 142325Z AUTO 13003KT 7000 BR OVC340 05/05 Q1025 WHT

Tijdstip: 00:50 (23:50 UTC)

Verwachting

Dit bericht is 6 uur en het 1 minuten geleden gemaakt, om 17:49 UTC
Verwachting geldig van 14 om 18 UTC tot 15 om 06 UTC
Wind 5 kt uit het zuidoosten
Zicht 10 km of meer
geen wolken onder 1500 m en geen cumulonimbus
Kans 30%
van 15 om 03 UTC tot 15 om 06 UTC
Zicht: 3000 m
nevel

TAF: EHGR 141749Z 1418/1506 14005KT CAVOK PROB30 1503/1506 3000 BR

Waarnemingen en weersverwachtingen van meer dan 4000 vliegvelden (METAR en TAF).

De beschikbare stations zijn de gele en rode punten op de kaart.

Ga met uw muis naar het station om de naam te zien.

Klik dan om waarnemingen en weersverwachtingen te zien.

kaart wijzigen: klik op de groene knoppen met een zwart kruis om in te zoomen, op de groene knop met een streepje om uit te zoomen of op de groene pijlen voor aangrenzende kaarten.


METAR-TAF: